Time;durP1;ratioP1;P1;durP2;ratioP2;P2;SDS_P1;SDS_P2;PMS_P1;PMS_P2;Temp;Humidity;BMP_temperature;BMP_pressure;BME280_temperature;BME280_humidity;BME280_pressure;Samples;Min_cycle;Max_cycle;Signal;HPM_P1;HPM_P2
2022/05/06 00:00:13;;;;;;;11.90;4.00;;;;;;;15.16;59.44;99142.72;5073718;28;20020;-50
2022/05/06 00:02:39;;;;;;;10.50;3.70;;;;;;;15.16;58.92;99140.09;5073632;28;20097;-49
2022/05/06 00:05:06;;;;;;;8.18;3.33;;;;;;;15.10;59.28;99146.25;5071513;28;20029;-50
2022/05/06 00:07:32;;;;;;;7.10;3.28;;;;;;;15.00;59.36;99149.38;5073613;28;20398;-49
2022/05/06 00:10:01;;;;;;;8.50;3.58;;;;;;;14.86;59.42;99135.47;5073495;28;20029;-49
2022/05/06 00:12:27;;;;;;;21.45;3.42;;;;;;;14.77;59.65;99142.09;5073438;28;20048;-49
2022/05/06 00:14:53;;;;;;;11.85;3.88;;;;;;;14.67;59.90;99147.00;5073346;28;20063;-50
2022/05/06 00:17:19;;;;;;;7.82;3.75;;;;;;;14.58;59.90;99136.72;5071997;28;20402;-49
2022/05/06 00:19:45;;;;;;;15.65;3.92;;;;;;;14.45;60.34;99138.66;5072029;28;20108;-49
2022/05/06 00:22:11;;;;;;;8.90;3.20;;;;;;;14.33;60.66;99131.41;5071969;28;20021;-50
2022/05/06 00:24:37;;;;;;;14.75;3.65;;;;;;;14.21;60.94;99135.75;5073200;28;20025;-50
2022/05/06 00:27:04;;;;;;;6.65;3.30;;;;;;;14.13;60.98;99126.25;5073178;28;20025;-49
2022/05/06 00:29:30;;;;;;;5.97;3.13;;;;;;;13.98;61.35;99126.53;5071788;28;20379;-50
2022/05/06 00:31:56;;;;;;;11.48;3.42;;;;;;;13.87;61.76;99124.56;5071619;28;20295;-49
2022/05/06 00:34:22;;;;;;;5.32;2.97;;;;;;;13.87;62.17;99126.41;5073051;28;20134;-50
2022/05/06 00:36:48;;;;;;;5.28;3.40;;;;;;;13.84;61.98;99124.16;5072955;28;20386;-49
2022/05/06 00:39:13;;;;;;;11.18;3.30;;;;;;;13.79;61.98;99117.69;5071627;28;20025;-50
2022/05/06 00:41:39;;;;;;;5.22;3.60;;;;;;;13.74;62.36;99116.69;5072839;28;20028;-50
2022/05/06 00:44:09;;;;;;;8.52;3.65;;;;;;;13.66;62.35;99106.38;5072830;28;20024;-50
2022/05/06 00:46:39;;;;;;;8.82;3.63;;;;;;;13.58;62.63;99117.97;5071416;28;20052;-50
2022/05/06 00:49:09;;;;;;;12.77;4.28;;;;;;;13.50;62.64;99111.13;5072738;28;20105;-50
2022/05/06 00:51:37;;;;;;;9.35;3.97;;;;;;;13.45;62.92;99115.41;5072634;28;20103;-49
2022/05/06 00:54:03;;;;;;;9.50;3.67;;;;;;;13.36;63.13;99107.72;5072639;28;20017;-49
2022/05/06 00:56:29;;;;;;;4.53;3.58;;;;;;;13.25;63.59;99100.41;5071290;28;20020;-50
2022/05/06 00:58:55;;;;;;;4.75;3.00;;;;;;;13.16;64.29;99109.59;5071209;28;20050;-50
2022/05/06 01:01:21;;;;;;;5.28;3.50;;;;;;;13.10;64.05;99107.75;5071164;28;20056;-48
2022/05/06 01:03:47;;;;;;;8.02;4.15;;;;;;;13.03;64.47;99106.97;5072434;28;20025;-50
2022/05/06 01:06:15;;;;;;;4.90;3.63;;;;;;;12.95;64.98;99108.00;5072432;28;20447;-49
2022/05/06 01:08:42;;;;;;;6.20;4.22;;;;;;;12.95;64.73;99108.00;5071039;28;20024;-50
2022/05/06 01:11:12;;;;;;;11.80;4.13;;;;;;;12.95;64.94;99102.72;5072311;28;20386;-49
2022/05/06 01:13:43;;;;;;;7.72;4.50;;;;;;;12.89;65.09;99101.72;5070919;28;20078;-49
2022/05/06 01:16:08;;;;;;;7.35;4.15;;;;;;;12.92;65.62;99098.69;5072288;28;20028;-50
2022/05/06 01:18:35;;;;;;;9.20;3.88;;;;;;;12.94;65.32;99090.59;5070757;28;20102;-50
2022/05/06 01:21:04;;;;;;;6.50;4.10;;;;;;;12.95;65.50;99095.63;5072194;28;20100;-50
2022/05/06 01:23:30;;;;;;;4.72;3.72;;;;;;;12.97;65.25;99106.75;5070802;28;20028;-49
2022/05/06 01:25:56;;;;;;;7.68;4.28;;;;;;;12.92;65.44;99098.69;5070765;28;20104;-49
2022/05/06 01:28:25;;;;;;;6.45;4.30;;;;;;;12.88;65.57;99096.66;5070696;28;20029;-50
2022/05/06 01:30:58;;;;;;;5.55;4.07;;;;;;;12.88;65.69;99096.66;5070390;28;20522;-49
2022/05/06 01:33:26;;;;;;;8.65;4.75;;;;;;;12.87;66.03;99095.84;5072083;28;20558;-49
2022/05/06 01:35:55;;;;;;;7.90;4.35;;;;;;;12.99;65.80;99096.03;5071969;28;20103;-50
2022/05/06 01:38:42;;;;;;;8.73;4.72;;;;;;;13.05;65.86;99094.41;5071851;28;20023;-49
2022/05/06 01:41:15;;;;;;;5.28;3.85;;;;;;;13.12;65.44;99093.38;5071928;28;20107;-49
2022/05/06 01:43:49;;;;;;;14.40;4.88;;;;;;;13.04;65.88;99096.22;5071962;28;20021;-50
2022/05/06 01:46:15;;;;;;;7.95;4.63;;;;;;;13.01;65.81;99094.00;5070619;28;20391;-49
2022/05/06 01:48:46;;;;;;;10.30;4.20;;;;;;;13.03;65.81;99094.59;5071812;28;20028;-49
2022/05/06 01:51:15;;;;;;;6.20;3.85;;;;;;;13.05;65.76;99086.50;5070456;28;20035;-50
2022/05/06 01:53:42;;;;;;;14.82;4.50;;;;;;;13.12;65.35;99080.19;5071752;28;20078;-50
2022/05/06 01:56:08;;;;;;;7.18;4.55;;;;;;;13.15;64.92;99084.25;5070395;28;20111;-48
2022/05/06 01:58:34;;;;;;;9.27;5.40;;;;;;;13.08;65.39;99084.25;5071606;28;20021;-50
2022/05/06 02:01:00;;;;;;;11.93;5.03;;;;;;;13.06;65.26;99085.47;5071673;28;20025;-49
2022/05/06 02:06:11;;;;;;;9.07;4.10;;;;;;;12.96;65.27;99086.72;5071693;28;20690;-50
2022/05/06 02:08:37;;;;;;;13.73;4.95;;;;;;;12.82;65.86;99081.66;5071581;28;20012;-49
2022/05/06 02:11:05;;;;;;;10.38;4.32;;;;;;;12.74;66.20;99085.34;5070324;28;20025;-50
2022/05/06 02:13:33;;;;;;;6.45;4.50;;;;;;;12.72;66.06;99087.38;5071573;28;20521;-50
2022/05/06 02:15:59;;;;;;;9.98;5.32;;;;;;;12.68;66.57;99086.16;5071520;28;20074;-50
2022/05/06 02:18:26;;;;;;;6.22;4.53;;;;;;;12.64;66.46;99082.31;5070112;28;20028;-50
2022/05/06 02:20:55;;;;;;;6.68;4.68;;;;;;;12.65;66.52;99076.00;5071517;28;20099;-50
2022/05/06 02:23:20;;;;;;;10.63;4.90;;;;;;;12.69;66.46;99071.97;5071467;28;20044;-49
2022/05/06 02:25:47;;;;;;;9.93;4.90;;;;;;;12.70;66.37;99069.13;5071447;28;20048;-50
2022/05/06 02:28:14;;;;;;;12.05;4.70;;;;;;;12.77;66.53;99069.09;5072596;28;20017;-50
2022/05/06 02:33:25;;;;;;;10.88;4.97;;;;;;;13.05;65.90;99060.94;5075685;28;20058;-49
2022/05/06 02:35:52;;;;;;;9.45;4.60;;;;;;;13.14;65.90;99053.66;5075265;28;20021;-50
2022/05/06 02:38:18;;;;;;;10.80;4.53;;;;;;;13.24;65.55;99051.38;5075249;28;20051;-49
2022/05/06 02:40:44;;;;;;;12.45;4.65;;;;;;;13.38;65.11;99052.97;5075202;28;20025;-49
2022/05/06 02:43:10;;;;;;;10.77;4.68;;;;;;;13.58;64.52;99050.25;5073808;28;20418;-49
2022/05/06 02:45:36;;;;;;;10.15;4.65;;;;;;;13.62;64.12;99055.09;5075082;28;20035;-49
2022/05/06 02:48:02;;;;;;;7.85;4.60;;;;;;;13.79;63.57;99064.13;5075097;28;20502;-50
2022/05/06 02:50:28;;;;;;;9.45;6.13;;;;;;;13.87;63.27;99071.00;5073633;28;20028;-50
2022/05/06 02:52:54;;;;;;;15.23;5.35;;;;;;;13.77;63.34;99074.88;5074978;28;20099;-49
2022/05/06 02:55:22;;;;;;;10.48;5.22;;;;;;;13.73;63.66;99078.97;5073609;28;20023;-50
2022/05/06 02:57:48;;;;;;;7.55;4.60;;;;;;;13.61;63.44;99070.09;5074844;28;20020;-49
2022/05/06 03:00:14;;;;;;;13.20;5.45;;;;;;;13.53;63.50;99072.97;5074799;28;20506;-50
2022/05/06 03:02:40;;;;;;;9.25;4.72;;;;;;;13.52;63.60;99071.34;5074690;28;20021;-50
2022/05/06 03:05:06;;;;;;;11.07;5.38;;;;;;;13.56;63.85;99076.00;5074745;28;20101;-50
2022/05/06 03:07:32;;;;;;;11.68;5.30;;;;;;;13.56;63.93;99067.28;5074637;28;20032;-51
2022/05/06 03:09:58;;;;;;;10.93;5.10;;;;;;;13.59;63.70;99061.59;5073378;28;20128;-49
2022/05/06 03:12:26;;;;;;;12.75;5.38;;;;;;;13.56;63.76;99062.84;5073281;28;20062;-50
2022/05/06 03:14:52;;;;;;;11.18;5.43;;;;;;;13.63;63.53;99062.78;5073292;28;20032;-50
2022/05/06 03:17:18;;;;;;;7.72;5.07;;;;;;;13.66;63.36;99062.38;5073074;28;20032;-50
2022/05/06 03:19:44;;;;;;;11.77;5.88;;;;;;;13.64;63.62;99053.84;5074529;28;20052;-50
2022/05/06 03:22:10;;;;;;;10.60;5.18;;;;;;;13.71;63.41;99059.91;5073193;28;20521;-50
2022/05/06 03:24:36;;;;;;;13.02;6.43;;;;;;;13.86;63.06;99056.16;5074381;28;20445;-50
2022/05/06 03:27:02;;;;;;;13.52;6.68;;;;;;;13.89;63.07;99053.91;5073062;28;20032;-49
2022/05/06 03:29:27;;;;;;;19.50;6.18;;;;;;;13.91;62.87;99048.44;5074298;28;20383;-51
2022/05/06 03:31:53;;;;;;;12.63;5.70;;;;;;;13.86;63.15;99048.25;5074083;28;20154;-50
2022/05/06 03:34:20;;;;;;;13.18;5.78;;;;;;;13.88;62.59;99051.50;5074230;28;20025;-50
2022/05/06 03:36:46;;;;;;;9.82;5.72;;;;;;;13.86;63.24;99046.41;5074134;28;20104;-50
2022/05/06 03:39:12;;;;;;;10.43;5.32;;;;;;;13.92;62.92;99055.31;5072032;28;20505;-50
2022/05/06 03:41:39;;;;;;;9.00;5.38;;;;;;;13.95;62.57;99053.06;5072342;28;20595;-50
2022/05/06 03:44:08;;;;;;;7.35;5.03;;;;;;;14.00;62.29;99055.06;5072779;28;20445;-49
2022/05/06 03:46:34;;;;;;;14.43;5.40;;;;;;;13.96;62.27;99053.88;5072671;28;20399;-50
2022/05/06 03:49:01;;;;;;;15.00;6.40;;;;;;;13.89;62.70;99053.91;5072713;28;20025;-50
2022/05/06 03:51:31;;;;;;;13.80;5.80;;;;;;;13.71;62.67;99043.28;5073896;28;20024;-49
2022/05/06 03:53:58;;;;;;;12.60;6.00;;;;;;;13.61;63.32;99049.00;5073928;28;20414;-49
2022/05/06 03:56:25;;;;;;;8.13;5.30;;;;;;;13.59;63.02;99043.13;5073881;28;20509;-50
2022/05/06 03:58:52;;;;;;;10.73;5.60;;;;;;;13.51;63.00;99028.34;5072460;28;20063;-49
2022/05/06 04:01:19;;;;;;;8.90;5.60;;;;;;;13.42;63.29;99029.63;5072420;28;20480;-49
2022/05/06 04:03:47;;;;;;;18.50;6.53;;;;;;;13.38;63.90;99034.53;5073693;28;20020;-50
2022/05/06 04:06:15;;;;;;;13.15;5.85;;;;;;;13.42;63.94;99029.63;5073561;28;20017;-49
2022/05/06 04:08:44;;;;;;;10.20;5.53;;;;;;;13.38;63.33;99034.53;5073622;28;20029;-50
2022/05/06 04:11:11;;;;;;;12.80;6.95;;;;;;;13.34;63.74;99032.50;5073479;28;20027;-50
2022/05/06 04:13:37;;;;;;;14.55;6.60;;;;;;;13.48;63.90;99028.78;5073535;28;20033;-50
2022/05/06 04:16:03;;;;;;;19.27;6.68;;;;;;;13.36;63.60;99036.56;5072170;28;20104;-50
2022/05/06 04:18:29;;;;;;;13.32;6.53;;;;;;;13.30;63.85;99049.75;5073355;28;20020;-50
2022/05/06 04:23:39;;;;;;;8.98;6.70;;;;;;;13.23;64.33;99060.28;5073382;28;20086;-50
2022/05/06 04:26:07;;;;;;;8.45;6.45;;;;;;;13.19;64.47;99057.25;5073219;28;20021;-49
2022/05/06 04:28:34;;;;;;;13.68;5.85;;;;;;;13.20;64.44;99055.44;5071953;28;20445;-49
2022/05/06 04:31:00;;;;;;;13.65;6.55;;;;;;;13.24;64.48;99050.53;5072901;28;20040;-49
2022/05/06 04:33:27;;;;;;;10.05;5.57;;;;;;;13.27;64.50;99047.50;5073038;28;20020;-49
2022/05/06 04:35:57;;;;;;;12.27;6.50;;;;;;;13.31;64.09;99046.91;5073027;28;20048;-49
2022/05/06 04:38:24;;;;;;;18.67;7.03;;;;;;;13.32;64.52;99059.06;5072874;28;20398;-50
2022/05/06 04:40:51;;;;;;;13.50;6.30;;;;;;;13.31;64.11;99049.53;5071641;28;20557;-49
2022/05/06 04:43:18;;;;;;;8.45;6.88;;;;;;;13.33;64.10;99050.13;5072911;28;20025;-49
2022/05/06 04:45:44;;;;;;;7.30;6.45;;;;;;;13.39;64.67;99048.50;5071590;28;20020;-48
2022/05/06 04:48:11;;;;;;;12.07;6.97;;;;;;;13.48;64.34;99046.44;5072767;28;20567;-49
2022/05/06 04:50:38;;;;;;;13.90;6.68;;;;;;;13.57;64.19;99048.63;5072437;28;20120;-49
2022/05/06 04:53:07;;;;;;;9.43;6.40;;;;;;;13.73;63.96;99042.03;5072680;28;20363;-49
2022/05/06 04:55:47;;;;;;;9.30;6.85;;;;;;;14.01;63.19;99048.78;5072616;28;20028;-50
2022/05/06 04:58:14;;;;;;;7.68;6.22;;;;;;;14.08;62.38;99040.81;5071290;28;20048;-50
2022/05/06 05:00:40;;;;;;;9.27;6.53;;;;;;;14.11;61.83;99054.38;5072525;28;20028;-50
2022/05/06 05:03:06;;;;;;;8.10;6.80;;;;;;;14.06;61.99;99051.56;5072481;28;20114;-50
2022/05/06 05:05:32;;;;;;;15.75;7.13;;;;;;;13.93;62.14;99049.03;5071136;28;20028;-49
2022/05/06 05:07:58;;;;;;;14.50;6.38;;;;;;;13.97;62.46;99044.94;5072397;28;20028;-50
2022/05/06 05:10:24;;;;;;;18.90;6.78;;;;;;;14.30;61.72;99051.81;5071025;28;20035;-50
2022/05/06 05:12:50;;;;;;;11.05;6.93;;;;;;;14.31;60.96;99048.97;5071010;28;20517;-50
2022/05/06 05:15:16;;;;;;;9.98;6.78;;;;;;;14.24;61.67;99055.31;5070944;28;20115;-49
2022/05/06 05:17:45;;;;;;;8.00;6.22;;;;;;;14.25;61.78;99054.28;5072173;28;20467;-49
2022/05/06 05:20:15;;;;;;;8.75;5.85;;;;;;;14.26;61.24;99066.47;5070825;28;20516;-48
2022/05/06 05:22:41;;;;;;;7.97;6.13;;;;;;;14.27;61.50;99066.25;5072173;28;20039;-49
2022/05/06 05:25:08;;;;;;;17.80;6.60;;;;;;;14.33;61.61;99065.38;5070756;28;20029;-50
2022/05/06 05:27:38;;;;;;;11.60;6.72;;;;;;;14.44;61.03;99058.59;5072128;28;20012;-48
2022/05/06 05:30:06;;;;;;;14.23;7.90;;;;;;;14.43;60.84;99059.63;5070503;28;20037;-49
2022/05/06 05:32:32;;;;;;;11.35;6.55;;;;;;;14.42;61.15;99054.56;5072651;28;20119;-49
2022/05/06 05:34:59;;;;;;;12.13;7.38;;;;;;;14.54;60.80;99052.81;5072033;28;20017;-50
2022/05/06 05:37:25;;;;;;;20.58;8.77;;;;;;;14.55;60.61;99057.91;5070562;28;20066;-49
2022/05/06 05:39:50;;;;;;;13.70;6.95;;;;;;;14.64;60.55;99055.81;5070619;28;20028;-49
2022/05/06 05:42:23;;;;;;;14.02;7.57;;;;;;;14.77;60.13;99066.25;5071867;28;20054;-49
2022/05/06 05:50:18;;;;;;;19.02;7.88;;;;;;;14.92;59.50;99063.25;5072427;28;20036;-50
2022/05/06 05:52:44;;;;;;;13.20;6.38;;;;;;;14.99;59.42;99065.84;5071787;28;20440;-50
2022/05/06 05:55:11;;;;;;;13.00;6.88;;;;;;;15.17;59.33;99062.38;5071726;28;20536;-50
2022/05/06 05:57:37;;;;;;;16.15;7.50;;;;;;;15.41;58.51;99062.50;5071692;28;20028;-50
2022/05/06 06:00:05;;;;;;;15.02;6.97;;;;;;;15.43;58.37;99055.16;5071693;28;20016;-49
2022/05/06 06:02:31;;;;;;;13.10;7.13;;;;;;;15.57;57.63;99064.53;5071023;28;20020;-50
2022/05/06 06:04:57;;;;;;;8.88;6.50;;;;;;;15.64;57.57;99065.28;5071633;28;20572;-49
2022/05/06 06:07:23;;;;;;;12.10;7.07;;;;;;;15.68;57.15;99057.72;5071737;28;20379;-50
2022/05/06 06:09:48;;;;;;;16.95;7.47;;;;;;;15.73;57.08;99063.94;5070393;28;20051;-50
2022/05/06 06:12:14;;;;;;;12.63;7.57;;;;;;;15.81;56.86;99056.75;5071631;28;20589;-50
2022/05/06 06:14:40;;;;;;;12.70;7.90;;;;;;;15.87;56.46;99058.47;5070316;28;20048;-50
2022/05/06 06:17:06;;;;;;;20.63;13.70;;;;;;;16.05;56.40;99061.06;5071564;28;20551;-49
2022/05/06 06:19:31;;;;;;;12.57;8.20;;;;;;;16.34;55.54;99064.69;5071461;28;20024;-50
2022/05/06 06:21:57;;;;;;;21.90;6.85;;;;;;;16.60;54.81;99060.00;5071480;28;20047;-49
2022/05/06 06:24:22;;;;;;;20.52;7.28;;;;;;;16.56;54.52;99064.94;5071507;28;20058;-49
2022/05/06 06:26:48;;;;;;;21.77;7.38;;;;;;;16.55;54.22;99047.44;5070263;28;20040;-49
2022/05/06 06:29:14;;;;;;;17.33;8.10;;;;;;;16.45;54.42;99064.94;5070179;28;20029;-49
2022/05/06 06:31:40;;;;;;;18.55;8.13;;;;;;;16.43;54.67;99064.34;5069906;28;20056;-50
2022/05/06 06:34:05;;;;;;;15.20;8.65;;;;;;;16.53;53.96;99057.44;5071434;28;20017;-50
2022/05/06 06:36:31;;;;;;;22.55;7.85;;;;;;;16.55;54.25;99057.22;5070059;28;20031;-49
2022/05/06 06:38:57;;;;;;;27.13;8.07;;;;;;;16.65;54.27;99065.41;5069915;28;20082;-50
2022/05/06 06:41:22;;;;;;;11.98;7.63;;;;;;;16.76;53.92;99069.91;5070018;28;20024;-49
2022/05/06 06:43:49;;;;;;;21.05;8.43;;;;;;;16.71;53.61;99072.44;5070031;28;20025;-49
2022/05/06 06:46:15;;;;;;;25.90;8.95;;;;;;;16.71;53.83;99067.13;5071202;28;20020;-50
2022/05/06 06:48:42;;;;;;;14.70;8.80;;;;;;;16.76;53.77;99066.44;5070003;28;20042;-49
2022/05/06 06:51:08;;;;;;;10.52;7.18;;;;;;;16.92;53.29;99060.47;5071187;28;20021;-50
2022/05/06 06:53:34;;;;;;;10.57;7.45;;;;;;;17.08;52.91;99066.09;5069935;28;20024;-49
2022/05/06 06:56:00;;;;;;;10.40;8.43;;;;;;;17.05;52.99;99071.88;5071141;28;20067;-50
2022/05/06 06:58:26;;;;;;;14.07;7.70;;;;;;;16.88;53.28;99061.97;5069837;28;20542;-50
2022/05/06 07:00:53;;;;;;;12.05;7.97;;;;;;;16.92;53.32;99060.47;5069801;28;20028;-50
2022/05/06 07:03:20;;;;;;;10.15;7.55;;;;;;;16.95;53.03;99060.00;5071108;28;20028;-48
2022/05/06 07:13:59;;;;;;;20.33;9.27;;;;;;;17.12;52.59;99067.22;5071747;28;20520;-50
2022/05/06 07:16:26;;;;;;;18.20;8.73;;;;;;;17.16;52.67;99073.69;5073352;28;20025;-49
2022/05/06 07:18:52;;;;;;;20.55;9.32;;;;;;;17.29;52.36;99073.44;5074458;28;20020;-50
2022/05/06 07:21:18;;;;;;;14.93;9.57;;;;;;;17.40;51.98;99069.13;5074517;28;20528;-49
2022/05/06 07:23:44;;;;;;;15.18;8.95;;;;;;;17.58;51.72;99078.75;5074436;28;20013;-50
2022/05/06 07:26:11;;;;;;;15.30;9.65;;;;;;;17.67;51.46;99072.06;5074404;28;20478;-50
2022/05/06 07:28:38;;;;;;;16.67;9.27;;;;;;;17.73;50.74;99072.97;5074333;28;20028;-49
2022/05/06 07:31:03;;;;;;;18.27;9.70;;;;;;;17.77;50.94;99066.94;5074008;28;20123;-49
2022/05/06 07:33:29;;;;;;;12.32;8.73;;;;;;;18.07;50.30;99065.88;5074296;28;20112;-50
2022/05/06 07:35:56;;;;;;;15.63;9.20;;;;;;;18.34;49.54;99074.03;5072907;28;20070;-49
2022/05/06 07:38:22;;;;;;;17.48;10.10;;;;;;;18.39;49.00;99070.66;5074144;28;20035;-49
2022/05/06 07:40:48;;;;;;;21.23;9.70;;;;;;;18.31;48.97;99068.38;5074120;28;20368;-49
2022/05/06 07:43:15;;;;;;;19.48;11.00;;;;;;;18.48;48.97;99066.53;5074088;28;20406;-49
2022/05/06 07:45:41;;;;;;;19.38;9.77;;;;;;;18.92;48.36;99069.31;5072716;28;20491;-49
2022/05/06 07:48:08;;;;;;;13.95;10.07;;;;;;;19.23;47.61;99066.25;5072698;28;20055;-50
2022/05/06 07:50:37;;;;;;;17.05;10.27;;;;;;;19.75;46.40;99060.47;5073970;28;20495;-50
2022/05/06 07:53:03;;;;;;;18.30;9.75;;;;;;;20.58;44.66;99051.31;5073941;28;20024;-49
2022/05/06 07:55:29;;;;;;;12.75;9.10;;;;;;;20.74;43.37;99059.19;5073862;28;20103;-49
2022/05/06 07:57:57;;;;;;;14.00;10.25;;;;;;;20.66;44.03;99058.84;5073750;28;20535;-51
2022/05/06 08:00:24;;;;;;;15.70;8.93;;;;;;;20.88;43.99;99053.38;5073807;28;20398;-50
2022/05/06 08:05:34;;;;;;;17.20;8.73;;;;;;;21.62;41.96;99060.38;5073794;28;20050;-49
2022/05/06 08:08:00;;;;;;;15.82;9.02;;;;;;;22.06;41.40;99057.22;5072335;28;20461;-50
2022/05/06 08:10:26;;;;;;;20.65;9.30;;;;;;;22.31;40.62;99055.66;5073591;28;20047;-50
2022/05/06 08:12:52;;;;;;;25.95;9.25;;;;;;;23.07;38.83;99052.03;5073559;28;20034;-50
2022/05/06 08:15:17;;;;;;;16.23;9.02;;;;;;;23.66;37.89;99053.13;5073465;28;20115;-50
2022/05/06 08:17:43;;;;;;;12.65;8.75;;;;;;;23.70;37.76;99047.97;5073360;28;20046;-49
2022/05/06 08:20:09;;;;;;;14.02;8.82;;;;;;;23.55;37.77;99046.22;5073346;28;20086;-50
2022/05/06 08:22:36;;;;;;;17.48;9.63;;;;;;;23.56;37.75;99047.78;5073330;28;20028;-50
2022/05/06 08:25:04;;;;;;;17.67;8.75;;;;;;;23.24;38.03;99053.59;5073231;28;20044;-50
2022/05/06 08:27:42;;;;;;;27.33;9.85;;;;;;;23.08;38.33;99051.00;5071416;28;20023;-49
2022/05/06 08:30:12;;;;;;;21.58;10.40;;;;;;;23.71;37.85;99039.69;5073116;28;20460;-49
2022/05/06 08:32:39;;;;;;;13.30;7.97;;;;;;;25.24;35.12;99041.25;5071832;28;20024;-50
2022/05/06 08:35:05;;;;;;;11.68;8.30;;;;;;;26.01;33.32;99042.88;5073030;28;20028;-50
2022/05/06 08:37:45;;;;;;;15.48;9.48;;;;;;;24.90;34.24;99047.53;5072960;28;20025;-50
2022/05/06 08:40:31;;;;;;;17.05;9.93;;;;;;;24.80;35.13;99043.09;5072008;28;20394;-49
2022/05/06 08:42:59;;;;;;;19.63;9.77;;;;;;;25.09;34.20;99042.22;5073223;28;20139;-49
2022/05/06 08:50:58;;;;;;;30.70;9.90;;;;;;;22.18;39.25;99062.31;5073152;28;20262;-49
2022/05/06 08:53:30;;;;;;;17.38;9.55;;;;;;;21.41;40.73;99056.00;5071846;28;20037;-48
2022/05/06 08:55:58;;;;;;;19.05;9.85;;;;;;;20.92;41.73;99055.25;5071335;28;20028;-49
2022/05/06 08:58:25;;;;;;;20.33;10.73;;;;;;;20.59;42.63;99052.97;5071313;28;20035;-49
2022/05/06 09:01:20;;;;;;;24.17;9.70;;;;;;;20.28;43.06;99058.00;5072545;28;20029;-49
2022/05/06 09:03:49;;;;;;;23.05;9.50;;;;;;;19.84;44.21;99063.50;5072233;28;20044;-49
2022/05/06 09:06:18;;;;;;;18.17;9.75;;;;;;;19.78;44.47;99065.31;5072459;28;20024;-49
2022/05/06 09:08:45;;;;;;;14.95;9.50;;;;;;;19.82;44.63;99054.94;5072704;28;20036;-49
2022/05/06 09:11:11;;;;;;;12.95;9.00;;;;;;;19.69;44.83;99061.44;5072344;28;20023;-49
2022/05/06 09:13:49;;;;;;;20.40;9.50;;;;;;;19.79;44.98;99060.78;5071188;28;20082;-50
2022/05/06 09:16:41;;;;;;;13.10;9.75;;;;;;;19.83;44.79;99053.91;5071111;28;20054;-48
2022/05/06 09:19:22;;;;;;;27.33;9.73;;;;;;;19.87;44.83;99058.47;5072163;28;20490;-49
2022/05/06 09:22:06;;;;;;;22.88;11.05;;;;;;;19.80;44.70;99055.22;5072235;28;20020;-49
2022/05/06 09:24:35;;;;;;;33.88;10.60;;;;;;;19.59;45.28;99072.81;5072228;28;20034;-49
2022/05/06 09:27:04;;;;;;;59.83;11.30;;;;;;;19.45;45.67;99067.06;5072179;28;20043;-48
2022/05/06 09:29:31;;;;;;;25.88;9.98;;;;;;;19.26;45.90;99071.09;5070762;28;20238;-50
2022/05/06 09:32:26;;;;;;;22.08;10.85;;;;;;;18.98;46.67;99072.06;5071828;28;20514;-49
2022/05/06 09:34:58;;;;;;;20.15;10.15;;;;;;;18.80;47.78;99065.97;5070797;28;20052;-48
2022/05/06 09:37:33;;;;;;;35.50;10.23;;;;;;;18.84;48.04;99067.09;5069765;28;20055;-49
2022/05/06 09:40:07;;;;;;;24.75;9.52;;;;;;;19.03;47.93;99069.47;5070659;28;20029;-48
2022/05/06 09:42:35;;;;;;;55.10;12.23;;;;;;;19.13;47.73;99069.59;5071961;28;20445;-49
2022/05/06 09:45:01;;;;;;;60.78;12.30;;;;;;;19.15;47.58;99064.81;5071921;28;20146;-50
2022/05/06 09:47:27;;;;;;;81.10;14.93;;;;;;;19.15;48.08;99062.16;5071895;28;20028;-48
2022/05/06 09:49:53;;;;;;;26.75;10.05;;;;;;;19.25;47.41;99056.16;5071907;28;20070;-49
2022/05/06 09:52:19;;;;;;;21.20;9.48;;;;;;;19.18;47.42;99066.22;5070513;28;20023;-49
2022/05/06 09:54:47;;;;;;;28.00;10.75;;;;;;;19.15;47.88;99067.50;5071780;28;20028;-49
2022/05/06 09:57:16;;;;;;;20.25;9.68;;;;;;;19.28;47.24;99063.69;5071812;28;20020;-48
2022/05/06 09:59:42;;;;;;;25.33;9.38;;;;;;;19.36;47.02;99053.38;5070381;28;20028;-50
2022/05/06 10:02:09;;;;;;;18.23;8.82;;;;;;;19.37;47.14;99059.50;5070411;28;20024;-48
2022/05/06 10:04:36;;;;;;;24.98;8.52;;;;;;;19.42;46.97;99062.25;5070391;28;20104;-50
2022/05/06 10:07:04;;;;;;;21.60;8.63;;;;;;;19.26;47.07;99058.59;5070299;28;20402;-49
2022/05/06 10:09:37;;;;;;;20.40;8.25;;;;;;;19.14;47.53;99060.56;5071654;28;20031;-50
2022/05/06 10:12:06;;;;;;;37.55;11.18;;;;;;;19.13;47.78;99065.06;5071695;28;20025;-50
2022/05/06 10:14:34;;;;;;;37.10;8.77;;;;;;;19.12;47.83;99060.00;5071545;28;20025;-49
2022/05/06 10:16:59;;;;;;;40.70;10.13;;;;;;;19.09;48.03;99068.47;5071549;28;20401;-49
2022/05/06 10:19:38;;;;;;;21.75;8.80;;;;;;;19.05;47.90;99062.03;5071532;28;20027;-49
2022/05/06 10:22:04;;;;;;;24.52;8.82;;;;;;;18.85;48.58;99062.56;5071629;28;20100;-50
2022/05/06 10:24:41;;;;;;;18.48;8.50;;;;;;;18.78;48.60;99068.03;5071476;28;20398;-49
2022/05/06 10:33:16;;;;;;;17.85;8.00;;;;;;;18.76;49.02;99062.16;5071731;28;20051;-49
2022/05/06 10:35:47;;;;;;;17.45;7.45;;;;;;;18.74;49.30;99056.28;5070037;28;20017;-50
2022/05/06 10:38:18;;;;;;;14.70;6.82;;;;;;;18.87;49.19;99050.63;5071364;28;20028;-49
2022/05/06 10:40:56;;;;;;;16.25;6.72;;;;;;;19.13;48.85;99057.09;5069992;28;20498;-49
2022/05/06 10:43:46;;;;;;;22.38;7.32;;;;;;;19.40;48.34;99048.38;5071407;28;20517;-48
2022/05/06 10:46:30;;;;;;;15.93;6.82;;;;;;;19.48;47.89;99047.94;5071333;28;20031;-48
2022/05/06 10:48:56;;;;;;;12.50;6.80;;;;;;;19.42;47.82;99051.59;5072006;28;20032;-49
2022/05/06 10:51:27;;;;;;;22.40;7.25;;;;;;;19.37;48.27;99059.50;5075077;28;20020;-50
2022/05/06 10:53:54;;;;;;;18.65;8.25;;;;;;;19.34;48.49;99052.03;5073743;28;20032;-49
2022/05/06 10:56:19;;;;;;;17.88;6.40;;;;;;;19.28;48.22;99051.16;5075004;28;20020;-49
2022/05/06 10:58:45;;;;;;;14.02;6.78;;;;;;;19.17;48.67;99057.41;5074805;28;20032;-49
2022/05/06 11:01:16;;;;;;;12.77;6.03;;;;;;;19.15;48.78;99052.31;5074897;28;20403;-49
2022/05/06 11:03:52;;;;;;;10.35;6.05;;;;;;;19.14;49.02;99050.72;5073478;28;20398;-50
2022/05/06 11:06:24;;;;;;;12.20;5.93;;;;;;;19.13;49.28;99059.75;5074781;28;20020;-49
2022/05/06 11:08:50;;;;;;;19.80;6.28;;;;;;;19.23;48.94;99047.63;5073465;28;20024;-49
2022/05/06 11:11:18;;;;;;;14.05;5.82;;;;;;;19.23;48.81;99058.28;5073376;28;20039;-49
2022/05/06 11:13:47;;;;;;;12.68;6.00;;;;;;;19.25;49.15;99048.97;5073315;28;20025;-49
2022/05/06 11:16:14;;;;;;;9.43;5.70;;;;;;;19.42;48.95;99045.44;5074617;28;20070;-49
2022/05/06 11:18:44;;;;;;;29.90;6.70;;;;;;;19.56;48.84;99046.69;5074468;28;20031;-50
2022/05/06 11:21:23;;;;;;;20.00;6.80;;;;;;;19.64;48.31;99045.41;5073167;28;20599;-49
2022/05/06 11:23:50;;;;;;;20.35;6.57;;;;;;;19.68;48.54;99047.34;5074449;28;20073;-49
2022/05/06 11:26:30;;;;;;;22.48;5.85;;;;;;;19.65;48.43;99042.50;5073140;28;20090;-49
2022/05/06 11:29:03;;;;;;;11.40;5.47;;;;;;;19.52;48.52;99045.59;5074366;28;20028;-49
2022/05/06 11:31:28;;;;;;;20.17;5.90;;;;;;;19.44;48.91;99038.03;5074095;28;20608;-49
2022/05/06 11:33:58;;;;;;;14.30;5.45;;;;;;;19.44;48.90;99043.38;5074318;28;20039;-49
2022/05/06 11:36:24;;;;;;;16.88;5.30;;;;;;;19.42;49.06;99040.94;5074188;28;20035;-50
2022/05/06 11:38:50;;;;;;;10.93;4.75;;;;;;;19.50;48.97;99047.69;5074133;28;20028;-49
2022/05/06 11:41:17;;;;;;;8.02;4.65;;;;;;;19.57;48.93;99034.97;5072834;28;20028;-49
2022/05/06 11:43:45;;;;;;;8.52;4.97;;;;;;;19.68;48.62;99034.03;5074133;28;20016;-49
2022/05/06 11:48:59;;;;;;;11.35;5.20;;;;;;;19.85;48.59;99025.16;5074098;28;20090;-49
2022/05/06 11:51:30;;;;;;;10.05;4.65;;;;;;;19.82;48.35;99028.31;5072686;28;20090;-49
2022/05/06 11:53:57;;;;;;;13.88;4.07;;;;;;;19.68;48.60;99025.22;5074051;28;20028;-50
2022/05/06 11:56:25;;;;;;;11.93;4.50;;;;;;;19.54;49.13;99024.84;5073919;28;20052;-50
2022/05/06 11:58:55;;;;;;;21.35;4.38;;;;;;;19.50;49.13;99026.41;5072467;28;20110;-49
2022/05/06 12:01:29;;;;;;;9.77;4.38;;;;;;;19.42;48.74;99034.78;5073380;28;20027;-49
2022/05/06 12:04:03;;;;;;;9.25;4.60;;;;;;;19.29;48.92;99023.47;5073776;28;20100;-48
2022/05/06 12:06:30;;;;;;;12.07;4.18;;;;;;;19.35;48.93;99025.16;5073705;28;20146;-48
2022/05/06 12:09:13;;;;;;;19.13;5.05;;;;;;;19.44;48.90;99027.41;5073670;28;20021;-49